首页
METAR-TAF:

METAR-TAF

机场 :

杰克逊, 田纳西州, 美国

纬度: 35-35-35N, 经度: 088-55-00W, 海拔: 132米

当前天气观测

该预报发布于1小时和12分钟前的16:53 UTC
静风
温度 28°C
湿度 70%
气压 1022 hPa
能見度: 16.1公里
少量云层高于1800英尺
散云层高于2200英尺
多云层高于3200英尺

METAR: KMKL 241653Z 00000KT 10SM FEW018 SCT022 BKN032 28/22 A3017 RMK AO2 SLP212 T02830222

时间: 13:05 (18:05 UTC)

预报

该预报发布于29分钟前的17:36 UTC
预报有效从24日的 18点(UTC)到 25日的 18点(UTC)
风速4节,风向南转西南
能見度: 10公里
散云层高于1500英尺
多云层高于3500英尺
附近有阵雨
从 25日的 0000点(UTC)
风速3节,风向
能見度: 10公里
多云层高于3500英尺
从 25日的 0700点(UTC)
风速节,风向
能見度: 4.8公里
阴天层高于700英尺
轻雾
从 25日的 1500点(UTC)
风速3节,风向西南
能見度: 10公里
多云层高于1500英尺
阴天层高于5000英尺

TAF: KMKL 241736Z 2418/2518 21004KT P6SM VCSH SCT015 BKN035 FM250000 18003KT P6SM BKN035 FM250700 00000KT 3SM BR OVC007 FM251500 23003KT P6SM BKN015 OVC050

超过4000个机场的气象观测和天气预报(METAR&TAF报告)。

可查询的气象台以黄色和红色小点在地图上表示。

将鼠标移到小点上方,可查看气象台名称。

然后点击查看天气观测和预报。

如需切换地图:点击带黑十字的绿色按钮放大地图;点击带横线的绿色按钮缩小地图;或者点击绿色箭头查看邻近地区的地图。


METAR-TAF: